Flight Track Log - Related Links

Times and Time Zones

All times are in EDT time to prevent confusion due to time zone crossing. See the N73DB flight status page for this flight to view local times or setup timezone preferences in your user account.

Time Position Orientation Groundspeed Altitude Reporting Facility
EDT Latitude Longitude Course Direction KTS MPH feet Rate Location/Type
Fri 08:20:31 PM 36.2550 -76.1483 73° East 143 165 1,400  Level Washington Center
Fri 08:21:01 PM 36.2614 -76.1225 73° East 168 193 1,900 1,000 Climbing Washington Center
Fri 08:22:01 PM 36.3111 -76.1436 341° North 269 310 2,900 1,950 Climbing Washington Center
Fri 08:23:01 PM 36.3108 -76.2389 270° West 260 299 5,800 2,230 Climbing Washington Center
Fri 08:24:29 PM 36.3100 -76.3575 289° West 281 323 8,400 1,890 Climbing Washington Center
Fri 08:25:27 PM 36.2969 -76.4503 260° West 281 323 10,400 2,017 Climbing Washington Center
Fri 08:26:28 PM 36.2817 -76.5453 259° West 281 323 12,400 1,967 Climbing Washington Center
Fri 08:27:29 PM 36.2683 -76.6353 260° West 276 318 14,400 1,934 Climbing Washington Center
Fri 08:28:29 PM 36.2572 -76.7281 262° West 276 318 16,300 1,700 Climbing Washington Center
Fri 08:29:29 PM 36.2436 -76.8206 260° West 276 318 17,800 1,388 Climbing Washington Center
Fri 08:30:30 PM 36.2300 -76.9181 260° West 281 323 19,100 1,412 Climbing Washington Center
Fri 08:31:28 PM 36.2144 -77.0208 259° West 287 330 20,600 1,412 Climbing Washington Center
Fri 08:32:29 PM 36.1986 -77.1208 259° West 298 343 21,900 694 Climbing Washington Center
Fri 08:33:29 PM 36.1844 -77.2339 261° West 310 357 22,000 51 Climbing Washington Center
Fri 08:34:27 PM 36.1681 -77.3544 260° West 340 391 22,000  Level Washington Center
Fri 08:35:27 PM 36.1517 -77.4775 261° West 353 406 22,000  Level Washington Center
Fri 08:36:28 PM 36.1331 -77.6006 259° West 366 421 22,000  Level Washington Center
Fri 08:37:28 PM 36.1142 -77.7208 259° West 366 421 22,000  Level Washington Center
Fri 08:38:29 PM 36.0953 -77.8439 259° West 371 427 22,000  Level Washington Center
Fri 08:39:27 PM 36.0761 -77.9692 259° West 371 427 22,000  Level Washington Center
Fri 08:40:28 PM 36.0592 -78.0919 260° West 371 427 22,000  Level Washington Center
Fri 08:41:29 PM 36.0397 -78.2122 259° West 371 427 22,000  Level Washington Center
Fri 08:42:28 PM 36.0203 -78.3347 259° West 371 427 22,000  Level Washington Center
Fri 08:43:29 PM 36.0008 -78.4572 259° West 371 427 22,000  Level Washington Center
Fri 08:44:30 PM 35.9811 -78.5797 259° West 371 427 22,000 -203 Level Washington Center
Fri 08:45:27 PM 35.9672 -78.7153 263° West 371 427 21,600 -661 Descending Washington Center
Fri 08:46:28 PM 35.9556 -78.8431 264° West 371 427 20,700 -738 Descending Washington Center
Fri 08:47:29 PM 35.9458 -78.9683 265° West 371 427 20,100 -605 Descending Washington Center
Fri 08:48:27 PM 35.9336 -79.0961 263° West 371 427 19,500 -610 Descending Washington Center
Fri 08:49:27 PM 35.9236 -79.2214 264° West 371 427 18,900 -558 Descending Washington Center
Fri 08:51:19 PM 35.8994 -79.4503 263° West 351 404 17,900 -663 Descending Atlanta Center
Fri 08:52:19 PM 35.8914 -79.5711 265° West 356 410 17,000 -450 Descending Atlanta Center
Fri 08:53:19 PM 35.8789 -79.6897 263° West 361 415 17,000  Level Atlanta Center
Fri 08:54:19 PM 35.8686 -79.8133 264° West 361 415 17,000  Level Atlanta Center
Fri 08:55:19 PM 35.8578 -79.9239 263° West 361 415 17,000 -250 Level Atlanta Center
Fri 08:56:19 PM 35.8472 -80.0447 264° West 366 421 16,500 -1,100 Descending Atlanta Center
Fri 08:57:19 PM 35.8367 -80.1736 264° West 319 367 14,800 -1,450 Descending Atlanta Center
Fri 08:58:19 PM 35.8269 -80.2611 262° West 335 386 13,600 -1,475 Descending Atlanta Center
Fri 08:58:20 PM 35.8256 -80.2789 265° West 315 362 13,300 -600 Descending Atlanta Center
Fri 08:59:19 PM 35.8139 -80.3794 262° West 329 379 13,000 -295 Descending Atlanta Center
Fri 08:59:21 PM 35.8139 -80.3819 270° West 310 357 13,000 -700 Level Atlanta Center
Fri 09:00:19 PM 35.7708 -80.4708 239° Southwest 304 350 12,300 -896 Descending Atlanta Center
Fri 09:00:28 PM 35.7586 -80.4817 216° Southwest 323 372 12,000 -1,219 Descending Atlanta Center
Fri 09:01:23 PM 35.6994 -80.5328 215° Southwest 311 358 11,000 -541 Descending Atlanta Center
Fri 09:02:19 PM 35.6281 -80.5894 213° Southwest 312 359 11,000  Level Atlanta Center
Fri 09:02:24 PM 35.6219 -80.5950 216° Southwest 309 356 11,000  Level Atlanta Center
Fri 09:03:19 PM 35.5525 -80.6514 213° Southwest 325 374 11,000  Level Atlanta Center
Fri 09:04:19 PM 35.4853 -80.7078 214° Southwest 325 374 11,000 -98 Level Atlanta Center
Fri 09:04:20 PM 35.4772 -80.7158 219° Southwest 330 380 10,900 -529 Descending Atlanta Center
Fri 09:05:27 PM 35.3975 -80.7828 214° Southwest 327 376 10,400 -454 Descending Atlanta Center
Fri 09:06:19 PM 35.3342 -80.8336 213° Southwest 331 381 10,000 -393 Descending Atlanta Center
Fri 09:06:28 PM 35.3156 -80.8369 188° South 333 383 10,000 -857 Level Atlanta Center
Fri 09:07:22 PM 35.2361 -80.8347 179° South 297 342 9,100 -1,513 Descending Atlanta Center
Fri 09:08:23 PM 35.1528 -80.8306 178° South 295 339 7,100 -1,967 Descending Atlanta Center
Fri 09:09:24 PM 35.0711 -80.8208 174° South 293 337 5,100 -1,525 Descending Atlanta Center
Fri 09:10:25 PM 35.0219 -80.8633 215° Southwest 238 274 4,000 -1,033 Descending Atlanta Center
Fri 09:11:26 PM 35.0589 -80.9153 311° West 179 206 3,000 -703 Descending Atlanta Center
Fri 09:12:33 PM 35.1050 -80.9286 347° North 161 185 2,500 -469 Descending Atlanta Center
Fri 09:13:34 PM 35.1447 -80.9322 356° North 131 151 2,000 -645 Descending Atlanta Center
Fri 09:14:34 PM 35.1803 -80.9361 355° North 112 129 1,200 -800 Descending Atlanta Center
Fri 09:16:00 PM 35.2000 -80.9333 324° Northwest  Level FlightAware Approximate
Fri 09:23:00 PM 35.2137 -80.9491 324° Northwest  Level Estimated

Login

Don't have an account? Register now (free) for customized features, flight alerts, and more!